NCAR-RAP Real-Time Weather Data

Output produced by METARs form (12 August 2020  18:16 UTC)
found at http://weather.rap.ucar.edu/surface/
 
KNYC 121751Z AUTO VRB03KT 8SM 31/24 A3003 RMK AO2 SLP158 T03110239 10317 20261 58008 $
KNYC 121651Z AUTO VRB00KT 7SM 29/24 A3004 RMK AO2 SLP162 T02890239 $
KNYC 121551Z AUTO 00000KT 9SM 31/23 A3005 RMK AO2 SLP165 T03110228 $
KNYC 121451Z AUTO 05004KT 9SM 29/23 A3005 RMK AO2 SLP167 T02940233 51006 $
KNYC 121351Z AUTO 00000KT 7SM 28/23 A3004 RMK AO2 SLP164 T02830228 $
KNYC 121251Z AUTO VRB03KT 8SM 27/23 A3004 RMK AO2 SLP164 T02720233 $
KNYC 121151Z AUTO 00000KT 6SM BR 26/24 A3003 RMK AO2 SLP160 T02610239 10267 20256 53009 $
KNYC 121051Z AUTO 00000KT 7SM 26/23 A3002 RMK AO2 SLP156 T02610233 $
KNYC 120951Z AUTO 24003KT 7SM 26/23 A3001 RMK AO2 SLP153 T02560233 $
KNYC 120851Z AUTO 23003KT 8SM 26/23 A3001 RMK AO2 SLP151 T02560233 53005 $
KNYC 120751Z AUTO VRB04KT 9SM 26/23 A3001 RMK AO2 SLP151 T02610233 $
KNYC 120651Z AUTO VRB04KT 9SM 26/23 A2999 RMK AO2 SLP146 T02610233 $
KNYC 120551Z AUTO 22004KT 9SM 26/23 A2999 RMK AO2 SLP146 T02560233 10272 20256 51005 $
KNYC 120451Z AUTO VRB04KT 10SM 26/23 A2999 RMK AO2 SLP145 T02610233 403110256 $
KNYC 120351Z AUTO VRB04KT 10SM 27/23 A2998 RMK AO2 SLP143 T02670228 $
KNYC 120251Z AUTO VRB04KT 10SM 26/23 A2998 RMK AO2 SLP141 T02610228 51010 $
KNYC 120151Z AUTO VRB03KT 10SM 27/23 A2997 RMK AO2 SLP139 T02670233 $
KNYC 120051Z AUTO VRB03KT 10SM 27/23 A2996 RMK AO2 SLP135 T02670233 $
KNYC 112351Z AUTO 00000KT 10SM 27/23 A2995 RMK AO2 SLP131 60000 T02720228 10306 20256 55002 $
KNYC 112251Z AUTO 16006KT 10SM 28/22 A2995 RMK AO2 SLP130 T02780222 $
KNYC 112151Z AUTO VRB03KT 10SM 28/21 A2995 RMK AO2 SLP132 T02830211 $
KNYC 112051Z AUTO VRB03KT 10SM 27/22 A2995 RMK AO2 RAB15E40 SLP133 P0000 60000 T02720222 58009 $
KNYC 111951Z AUTO VRB03KT 10SM 28/23 A2997 RMK AO2 SLP138 T02830228 $
KNYC 111851Z AUTO VRB04KT 10SM 29/22 A2997 RMK AO2 SLP139 T02940222 $
KNYC 111751Z AUTO 00000KT 10SM 29/22 A2998 RMK AO2 SLP142 T02940222 10311 20261 58013 $
KNYC 111651Z AUTO VRB06KT 10SM 29/22 A3000 RMK AO2 SLP148 T02940222 $
KNYC 111551Z AUTO 00000KT 10SM 29/23 A3001 RMK AO2 SLP153 T02890228 $
KNYC 111451Z AUTO 22003KT 10SM 29/23 A3002 RMK AO2 SLP156 T02890228 51005 $
KNYC 111351Z AUTO 00000KT 9SM 28/22 A3002 RMK AO2 SLP155 T02780222 $
KNYC 111251Z AUTO VRB04KT 9SM 27/23 A3002 RMK AO2 SLP154 T02670233 $
KNYC 111151Z AUTO 00000KT 9SM 26/23 A3001 RMK AO2 SLP151 T02610233 10267 20256 51007 $
KNYC 111051Z AUTO 25003KT 10SM 26/23 A3000 RMK AO2 SLP149 T02610228 $
KNYC 110951Z AUTO 00000KT 10SM 26/23 A2999 RMK AO2 SLP146 T02560228 $
KNYC 110851Z AUTO VRB04KT 10SM 26/23 A2998 RMK AO2 SLP143 T02610228 55003 $
KNYC 110751Z AUTO VRB06KT 10SM 26/23 A2998 RMK AO2 SLP143 T02610228 $
KNYC 110651Z AUTO VRB05KT 10SM 26/22 A2998 RMK AO2 SLP142 T02610222 $
KNYC 110551Z AUTO 10SM 26/22 A2999 RMK AO2 SLP146 T02610222 10294 20261 57003 $
KNYC 110451Z AUTO VRB04KT 10SM 27/22 A3000 RMK AO2 SLP147 T02670222 403330244 $
KNYC 110351Z AUTO VRB04KT 10SM 28/23 A3000 RMK AO2 SLP148 T02780228 $
KNYC 110251Z AUTO VRB05KT 10SM 28/23 A3000 RMK AO2 SLP149 T02780228 51008 $
KNYC 110151Z AUTO VRB04KT 10SM 28/23 A3000 RMK AO2 SLP148 T02830228 $
KNYC 110051Z AUTO VRB03KT 10SM 29/23 A2999 RMK AO2 SLP145 T02890228 $
KNYC 102351Z AUTO VRB03KT 10SM 29/22 A2998 RMK AO2 SLP141 T02940222 10333 20294 55003 $
KNYC 102251Z AUTO 16003KT 9SM 30/22 A2997 RMK AO2 SLP140 T03000222 $
KNYC 102151Z AUTO VRB03KT 10SM 30/22 A2998 RMK AO2 SLP141 T03000217 $
KNYC 102051Z AUTO 14007KT 120V180 10SM 31/22 A2999 RMK AO2 SLP144 T03060222 58014 $
KNYC 101951Z AUTO 15007KT 10SM 31/22 A3000 RMK AO2 SLP149 T03110217 $
KNYC 101851Z AUTO VRB06KT 10SM 32/19 A3001 RMK AO2 SLP154 T03220189 $